createdAt,value
2018-08-28T00:02:14.302Z,12.50
2018-08-28T00:04:43.288Z,12.50
2018-08-28T00:07:12.266Z,12.50
2018-08-28T00:09:41.188Z,12.50
2018-08-28T00:12:10.116Z,12.40
2018-08-28T00:14:39.122Z,12.40
2018-08-28T00:17:08.176Z,12.40
2018-08-28T00:19:37.151Z,12.30
2018-08-28T00:22:06.170Z,12.30
2018-08-28T00:24:35.083Z,12.30
2018-08-28T00:27:04.011Z,12.30
2018-08-28T00:29:32.937Z,12.30
2018-08-28T00:32:01.893Z,12.30
2018-08-28T00:34:30.839Z,12.20
2018-08-28T00:36:59.927Z,12.20
2018-08-28T00:39:28.893Z,12.20
2018-08-28T00:41:57.863Z,12.20
2018-08-28T00:44:26.869Z,12.20
2018-08-28T00:46:55.811Z,12.20
2018-08-28T00:49:24.787Z,12.30
2018-08-28T00:51:53.847Z,12.30
2018-08-28T00:54:22.978Z,12.30
2018-08-28T00:56:51.868Z,12.30
2018-08-28T00:59:20.868Z,12.30
2018-08-28T01:01:49.904Z,12.40
2018-08-28T01:04:18.873Z,12.40
2018-08-28T01:06:47.885Z,12.40
2018-08-28T01:09:16.773Z,12.40
2018-08-28T01:11:45.917Z,12.40
2018-08-28T01:14:14.953Z,12.40
2018-08-28T01:16:43.929Z,12.50
2018-08-28T01:19:12.998Z,12.50
2018-08-28T01:21:42.119Z,12.50
2018-08-28T01:24:11.085Z,12.40
2018-08-28T01:26:40.458Z,12.40
2018-08-28T01:29:09.417Z,12.40
2018-08-28T01:31:38.398Z,12.40
2018-08-28T01:34:08.205Z,12.50
2018-08-28T01:36:37.180Z,12.40
2018-08-28T01:39:07.261Z,12.50
2018-08-28T01:41:36.429Z,12.50
2018-08-28T01:44:05.466Z,12.50
2018-08-28T01:46:34.517Z,12.60
2018-08-28T01:49:03.598Z,12.60
2018-08-28T01:51:32.595Z,12.60
2018-08-28T01:54:01.538Z,12.60
2018-08-28T01:56:30.408Z,12.60
2018-08-28T01:58:59.455Z,12.70
2018-08-28T02:01:28.443Z,12.70
2018-08-28T02:03:57.589Z,12.70
2018-08-28T02:06:26.596Z,12.70
2018-08-28T02:08:55.514Z,12.70
2018-08-28T02:11:24.673Z,12.70
2018-08-28T02:13:53.712Z,12.60
2018-08-28T02:16:22.695Z,12.60
2018-08-28T02:18:51.804Z,12.60
2018-08-28T02:21:20.793Z,12.60
2018-08-28T02:23:49.882Z,12.60
2018-08-28T02:26:18.754Z,12.60
2018-08-28T02:28:47.814Z,12.70
2018-08-28T02:31:16.893Z,12.70
2018-08-28T02:33:46.020Z,12.70
2018-08-28T02:36:14.950Z,12.70
2018-08-28T02:38:43.907Z,12.70
2018-08-28T02:41:12.954Z,12.70
2018-08-28T02:43:42.023Z,12.70
2018-08-28T02:46:11.050Z,12.70
2018-08-28T02:48:40.097Z,12.70
2018-08-28T02:51:09.115Z,12.80
2018-08-28T02:53:38.093Z,12.70
2018-08-28T02:56:07.126Z,12.80
2018-08-28T02:58:36.106Z,12.80
2018-08-28T03:01:05.158Z,12.70
2018-08-28T03:03:34.196Z,12.70
2018-08-28T03:06:03.219Z,12.70
2018-08-28T03:08:32.258Z,12.70
2018-08-28T03:11:01.223Z,12.70
2018-08-28T03:13:30.180Z,12.70
2018-08-28T03:15:59.197Z,12.60
2018-08-28T03:18:28.164Z,12.60
2018-08-28T03:20:57.130Z,12.60
2018-08-28T03:23:26.064Z,12.60
2018-08-28T03:25:54.920Z,12.60
2018-08-28T03:28:23.943Z,12.60
2018-08-28T03:30:52.895Z,12.60
2018-08-28T03:33:21.894Z,12.60
2018-08-28T03:35:50.813Z,12.60
2018-08-28T03:38:19.775Z,12.60
2018-08-28T03:40:48.818Z,12.60
2018-08-28T03:43:17.985Z,12.60
2018-08-28T03:45:46.949Z,12.60
2018-08-28T03:48:15.922Z,12.50
2018-08-28T03:50:44.917Z,12.50
2018-08-28T03:53:13.898Z,12.50
2018-08-28T03:55:42.870Z,12.50
2018-08-28T03:58:11.921Z,12.50
2018-08-28T04:00:40.893Z,12.40
2018-08-28T04:03:09.818Z,12.40
2018-08-28T04:05:38.806Z,12.40
2018-08-28T04:08:07.821Z,12.40
2018-08-28T04:10:36.874Z,12.40
2018-08-28T04:13:06.028Z,12.30
2018-08-28T04:15:34.997Z,12.30
2018-08-28T04:18:03.957Z,12.30
2018-08-28T04:20:32.954Z,12.30
2018-08-28T04:23:01.996Z,12.30
2018-08-28T04:25:31.042Z,12.30
2018-08-28T04:28:00.158Z,12.30
2018-08-28T04:30:29.252Z,12.30
2018-08-28T04:32:58.178Z,12.40
2018-08-28T04:35:27.255Z,12.40
2018-08-28T04:37:56.261Z,12.40
2018-08-28T04:40:25.278Z,12.50
2018-08-28T04:42:54.293Z,12.50
2018-08-28T04:45:23.243Z,12.60
2018-08-28T04:47:52.327Z,12.70
2018-08-28T04:50:21.456Z,12.70
2018-08-28T04:52:50.442Z,12.80
2018-08-28T04:55:19.462Z,12.80
2018-08-28T04:57:48.440Z,12.90
2018-08-28T05:00:17.435Z,12.90
2018-08-28T05:02:46.477Z,13.00
2018-08-28T05:05:15.431Z,13.00
2018-08-28T05:07:44.473Z,13.10
2018-08-28T05:10:13.446Z,13.10
2018-08-28T05:12:42.393Z,13.20
2018-08-28T05:15:11.399Z,13.30
2018-08-28T05:17:40.365Z,13.30
2018-08-28T05:20:09.338Z,13.40
2018-08-28T05:22:38.315Z,13.50
2018-08-28T05:25:07.349Z,13.50
2018-08-28T05:27:36.346Z,13.60
2018-08-28T05:30:05.438Z,13.60
2018-08-28T05:32:34.438Z,13.70
2018-08-28T05:35:03.458Z,13.80
2018-08-28T05:37:32.649Z,13.80
2018-08-28T05:40:01.654Z,13.90
2018-08-28T05:42:30.798Z,13.90
2018-08-28T05:44:59.964Z,14.00
2018-08-28T05:47:29.137Z,14.20
2018-08-28T05:49:58.150Z,14.30
2018-08-28T05:52:27.319Z,14.40
2018-08-28T05:54:56.542Z,14.50
2018-08-28T05:57:25.489Z,14.60
2018-08-28T05:59:54.433Z,14.70
2018-08-28T06:02:23.402Z,14.90
2018-08-28T06:04:52.503Z,15.00
2018-08-28T06:07:21.658Z,15.10
2018-08-28T06:09:50.712Z,15.30
2018-08-28T06:12:19.676Z,15.40
2018-08-28T06:14:48.795Z,15.40
2018-08-28T06:17:17.723Z,15.50
2018-08-28T06:19:46.674Z,15.60
2018-08-28T06:22:15.704Z,15.80
2018-08-28T06:24:44.677Z,15.90
2018-08-28T06:27:13.632Z,16.00
2018-08-28T06:29:42.675Z,16.20
2018-08-28T06:32:11.645Z,16.20
2018-08-28T06:34:40.691Z,16.30
2018-08-28T06:37:09.686Z,16.40
2018-08-28T06:39:38.754Z,16.50
2018-08-28T06:42:07.781Z,16.60
2018-08-28T06:44:36.761Z,16.70
2018-08-28T06:47:05.858Z,16.90
2018-08-28T06:49:35.007Z,16.90
2018-08-28T06:52:03.892Z,17.00
2018-08-28T06:54:32.889Z,17.20
2018-08-28T06:57:02.013Z,17.20
2018-08-28T06:59:31.038Z,17.40
2018-08-28T07:02:00.068Z,17.50
2018-08-28T07:04:29.185Z,17.70
2018-08-28T07:06:58.157Z,17.90
2018-08-28T07:09:27.180Z,18.00
2018-08-28T07:11:56.490Z,18.10
2018-08-28T07:14:25.480Z,18.20
2018-08-28T07:16:54.509Z,18.30
2018-08-28T07:19:23.428Z,18.40
2018-08-28T07:21:52.456Z,18.50
2018-08-28T07:24:21.506Z,18.60
2018-08-28T07:26:50.490Z,18.80
2018-08-28T07:29:19.665Z,18.90
2018-08-28T07:31:48.911Z,19.10
2018-08-28T07:34:17.931Z,19.20
2018-08-28T07:36:47.075Z,19.10
2018-08-28T07:39:16.102Z,19.10
2018-08-28T07:41:45.262Z,19.30
2018-08-28T07:44:14.323Z,19.50
2018-08-28T07:46:43.410Z,19.70
2018-08-28T07:49:12.365Z,19.70
2018-08-28T07:51:41.285Z,19.80
2018-08-28T07:54:10.336Z,20.00
2018-08-28T07:56:39.363Z,19.90
2018-08-28T07:59:08.305Z,19.90
2018-08-28T08:01:37.485Z,20.00
2018-08-28T08:04:06.727Z,20.20
2018-08-28T08:06:35.853Z,20.40
2018-08-28T08:09:06.337Z,20.60
2018-08-28T08:11:35.445Z,20.80
2018-08-28T08:14:04.608Z,21.00
2018-08-28T08:16:33.660Z,21.30
2018-08-28T08:19:02.645Z,21.50
2018-08-28T08:21:31.775Z,21.60
2018-08-28T08:24:00.695Z,21.50
2018-08-28T08:26:29.789Z,21.50
2018-08-28T08:28:58.830Z,21.70
2018-08-28T08:31:27.893Z,22.10
2018-08-28T08:33:57.101Z,22.30
2018-08-28T08:36:26.138Z,22.50
2018-08-28T08:38:55.188Z,22.30
2018-08-28T08:41:24.154Z,22.40
2018-08-28T08:43:53.183Z,22.60
2018-08-28T08:46:22.184Z,22.90
2018-08-28T08:48:51.152Z,23.30
2018-08-28T08:51:20.184Z,23.70
2018-08-28T08:53:49.235Z,23.80
2018-08-28T08:56:18.161Z,24.10
2018-08-28T08:58:47.202Z,24.40
2018-08-28T09:01:16.358Z,24.50
2018-08-28T09:03:45.450Z,24.60
2018-08-28T09:06:14.506Z,24.80
2018-08-28T09:08:43.504Z,25.00
2018-08-28T09:11:12.623Z,25.20
2018-08-28T09:13:41.699Z,25.50
2018-08-28T09:16:10.694Z,25.50
2018-08-28T09:18:39.754Z,25.70
2018-08-28T09:21:08.862Z,25.80
2018-08-28T09:23:37.872Z,26.00
2018-08-28T09:26:06.878Z,26.10
2018-08-28T09:28:36.037Z,26.30
2018-08-28T09:31:05.133Z,26.60
2018-08-28T09:33:34.183Z,26.70
2018-08-28T09:36:03.308Z,26.80
2018-08-28T09:38:32.493Z,26.90
2018-08-28T09:41:01.653Z,26.90
2018-08-28T09:43:30.723Z,26.80
2018-08-28T09:45:59.775Z,27.00
2018-08-28T09:48:28.803Z,27.20
2018-08-28T09:50:58.011Z,27.40
2018-08-28T09:53:27.025Z,27.60
2018-08-28T09:55:56.009Z,27.90
2018-08-28T09:58:25.101Z,28.00
2018-08-28T10:00:59.316Z,27.80
2018-08-28T10:03:28.353Z,27.80
2018-08-28T10:05:57.477Z,27.60
2018-08-28T10:08:26.396Z,27.70
2018-08-28T10:10:55.559Z,27.60
2018-08-28T10:13:24.571Z,27.60
2018-08-28T10:15:53.547Z,27.40
2018-08-28T10:18:22.578Z,27.60
2018-08-28T10:20:51.597Z,27.80
2018-08-28T10:23:20.654Z,27.90
2018-08-28T10:25:49.688Z,27.70
2018-08-28T10:28:18.733Z,27.70
2018-08-28T10:30:47.773Z,27.90
2018-08-28T10:33:16.822Z,28.10
2018-08-28T10:35:45.845Z,28.50
2018-08-28T10:38:14.887Z,28.60
2018-08-28T10:40:43.879Z,28.70
2018-08-28T10:43:12.934Z,28.60
2018-08-28T10:45:49.311Z,28.40
2018-08-28T10:48:18.561Z,28.10
2018-08-28T10:50:47.593Z,27.70
2018-08-28T10:53:16.745Z,27.50
2018-08-28T10:55:45.839Z,27.20
2018-08-28T10:58:14.903Z,27.10
2018-08-28T11:00:44.046Z,26.80
2018-08-28T11:03:13.184Z,26.90
2018-08-28T11:05:42.174Z,27.10
2018-08-28T11:08:17.660Z,27.60
2018-08-28T11:10:46.674Z,28.20
2018-08-28T11:13:15.658Z,28.70
2018-08-28T11:15:44.624Z,28.90
2018-08-28T11:18:13.697Z,29.00
2018-08-28T11:20:42.747Z,29.00
2018-08-28T11:23:11.714Z,28.90
2018-08-28T11:25:40.694Z,28.60
2018-08-28T11:28:09.765Z,28.20
2018-08-28T11:30:40.740Z,27.70
2018-08-28T11:33:09.725Z,27.40
2018-08-28T11:35:38.935Z,27.30
2018-08-28T11:38:08.057Z,27.70
2018-08-28T11:40:37.276Z,27.90
2018-08-28T11:43:06.587Z,28.10
2018-08-28T11:45:35.746Z,28.00
2018-08-28T11:48:04.979Z,28.00
2018-08-28T11:50:34.003Z,27.80
2018-08-28T11:53:03.077Z,27.80
2018-08-28T11:55:32.087Z,27.90
2018-08-28T11:58:01.171Z,27.90
2018-08-28T12:00:30.279Z,27.90
2018-08-28T12:02:59.365Z,28.00
2018-08-28T12:05:28.443Z,27.70
2018-08-28T12:07:57.525Z,27.50
2018-08-28T12:10:26.642Z,27.30
2018-08-28T12:12:55.866Z,27.70
2018-08-28T12:15:24.834Z,28.30
2018-08-28T12:17:53.882Z,29.00
2018-08-28T12:20:23.037Z,29.60
2018-08-28T12:22:54.863Z,30.00
2018-08-28T12:25:23.981Z,30.20
2018-08-28T12:27:52.987Z,30.20
2018-08-28T12:30:22.036Z,29.90
2018-08-28T12:32:51.202Z,29.90
2018-08-28T12:35:20.197Z,30.10
2018-08-28T12:37:49.284Z,30.00
2018-08-28T12:40:18.193Z,29.90
2018-08-28T12:42:47.306Z,29.90
2018-08-28T12:45:16.478Z,29.40
2018-08-28T12:47:45.528Z,29.10
2018-08-28T12:50:14.715Z,29.10
2018-08-28T12:52:43.710Z,29.50
2018-08-28T12:55:12.700Z,29.90
2018-08-28T12:57:41.739Z,30.20
2018-08-28T13:00:10.722Z,30.40
2018-08-28T13:02:39.633Z,30.60
2018-08-28T13:05:08.631Z,30.50
2018-08-28T13:07:37.584Z,30.60
2018-08-28T13:10:13.371Z,31.20
2018-08-28T13:12:42.332Z,32.10
2018-08-28T13:15:14.711Z,32.60
2018-08-28T13:17:43.896Z,32.10
2018-08-28T13:20:12.804Z,32.00
2018-08-28T13:22:41.779Z,32.30
2018-08-28T13:25:11.220Z,32.60
2018-08-28T13:27:40.213Z,33.20
2018-08-28T13:30:09.305Z,34.10
2018-08-28T13:32:38.397Z,34.60
2018-08-28T13:35:07.407Z,33.90
2018-08-28T13:37:36.428Z,33.80
2018-08-28T13:40:07.134Z,34.30
2018-08-28T13:42:36.105Z,34.60
2018-08-28T13:45:05.240Z,35.00
2018-08-28T13:47:34.296Z,35.50
2018-08-28T13:50:03.380Z,36.10
2018-08-28T13:52:32.481Z,36.60
2018-08-28T13:55:01.551Z,36.90
2018-08-28T13:57:30.679Z,37.40
2018-08-28T13:59:59.734Z,37.80
2018-08-28T14:02:28.714Z,38.00
2018-08-28T14:04:57.736Z,37.70
2018-08-28T14:07:26.694Z,37.70
2018-08-28T14:09:55.801Z,37.70
2018-08-28T14:12:24.818Z,37.10
2018-08-28T14:14:53.977Z,37.00
2018-08-28T14:17:23.322Z,37.50
2018-08-28T14:19:52.855Z,37.60
2018-08-28T14:22:21.901Z,37.80
2018-08-28T14:24:50.895Z,37.90
2018-08-28T14:27:20.034Z,38.30
2018-08-28T14:29:49.065Z,37.80
2018-08-28T14:32:18.308Z,37.50
2018-08-28T14:34:47.352Z,37.40
2018-08-28T14:37:16.474Z,37.00
2018-08-28T14:39:45.573Z,37.10
2018-08-28T14:42:14.766Z,37.30
2018-08-28T14:44:43.756Z,37.50
2018-08-28T14:47:12.870Z,37.50
2018-08-28T14:49:42.031Z,38.00
2018-08-28T14:52:11.045Z,38.00
2018-08-28T14:54:40.065Z,37.70
2018-08-28T14:57:09.022Z,37.60
2018-08-28T14:59:38.080Z,37.30
2018-08-28T15:02:07.125Z,37.30
2018-08-28T15:04:36.173Z,37.50
2018-08-28T15:07:05.476Z,37.60
2018-08-28T15:09:34.464Z,37.80
2018-08-28T15:12:03.513Z,38.00
2018-08-28T15:14:32.502Z,37.90
2018-08-28T15:17:01.490Z,38.10
2018-08-28T15:19:30.516Z,38.30
2018-08-28T15:21:59.513Z,38.50
2018-08-28T15:24:28.606Z,38.60
2018-08-28T15:26:57.652Z,38.40
2018-08-28T15:29:26.602Z,38.20
2018-08-28T15:31:55.635Z,37.50
2018-08-28T15:34:24.718Z,36.60
2018-08-28T15:36:53.845Z,35.20
2018-08-28T15:39:22.846Z,33.60
2018-08-28T15:41:51.829Z,32.10
2018-08-28T15:44:20.893Z,30.90
2018-08-28T15:46:49.977Z,29.80
2018-08-28T15:49:19.053Z,29.00
2018-08-28T15:51:48.142Z,28.30
2018-08-28T15:54:17.169Z,27.90
2018-08-28T15:56:46.193Z,27.40
2018-08-28T15:59:15.241Z,26.90
2018-08-28T16:01:44.382Z,26.60
2018-08-28T16:04:20.262Z,26.30
2018-08-28T16:06:50.738Z,26.10
2018-08-28T16:09:19.790Z,25.70
2018-08-28T16:11:49.103Z,25.50
2018-08-28T16:14:18.206Z,25.30
2018-08-28T16:16:47.607Z,25.10
2018-08-28T16:19:16.576Z,24.90
2018-08-28T16:21:47.958Z,24.80
2018-08-28T16:24:17.127Z,24.60
2018-08-28T16:26:46.163Z,24.50
2018-08-28T16:29:15.243Z,24.40
2018-08-28T16:31:44.219Z,24.30
2018-08-28T16:34:13.300Z,24.00
2018-08-28T16:36:42.321Z,23.80
2018-08-28T16:39:11.448Z,23.70
2018-08-28T16:41:40.422Z,23.50
2018-08-28T16:44:09.509Z,23.40
2018-08-28T16:46:38.676Z,23.20
2018-08-28T16:49:07.730Z,23.00
2018-08-28T16:51:37.042Z,22.90
2018-08-28T16:54:06.110Z,22.80
2018-08-28T16:56:35.197Z,22.70
2018-08-28T16:59:04.321Z,22.60
2018-08-28T17:01:33.470Z,22.50
2018-08-28T17:04:02.666Z,22.40
2018-08-28T17:06:31.742Z,22.30
2018-08-28T17:09:00.858Z,22.20
2018-08-28T17:11:29.853Z,22.10
2018-08-28T17:13:58.891Z,21.90
2018-08-28T17:16:27.840Z,21.70
2018-08-28T17:18:56.882Z,21.60
2018-08-28T17:21:25.952Z,21.40
2018-08-28T17:23:54.947Z,21.20
2018-08-28T17:26:24.016Z,21.10
2018-08-28T17:28:52.898Z,20.90
2018-08-28T17:31:21.887Z,20.90
2018-08-28T17:33:50.848Z,20.80
2018-08-28T17:36:20.023Z,20.70
2018-08-28T17:38:49.031Z,20.70
2018-08-28T17:41:18.035Z,20.70
2018-08-28T17:43:46.952Z,20.70
2018-08-28T17:46:15.998Z,20.50
2018-08-28T17:48:45.228Z,20.40
2018-08-28T17:51:14.155Z,20.20
2018-08-28T17:53:43.295Z,20.10
2018-08-28T17:56:12.312Z,19.90
2018-08-28T17:58:41.269Z,19.70
2018-08-28T18:01:10.206Z,19.60
2018-08-28T18:03:39.379Z,19.50
2018-08-28T18:06:08.401Z,19.40
2018-08-28T18:08:37.353Z,19.30
2018-08-28T18:11:06.419Z,19.20
2018-08-28T18:13:35.444Z,19.20
2018-08-28T18:16:04.333Z,19.20
2018-08-28T18:18:33.298Z,19.20
2018-08-28T18:21:02.294Z,19.00
2018-08-28T18:23:31.406Z,18.80
2018-08-28T18:26:00.352Z,18.70
2018-08-28T18:28:29.466Z,18.70
2018-08-28T18:30:58.421Z,18.60
2018-08-28T18:33:27.392Z,18.40
2018-08-28T18:35:56.343Z,18.40
2018-08-28T18:38:25.338Z,18.30
2018-08-28T18:40:54.326Z,18.20
2018-08-28T18:43:23.211Z,18.20
2018-08-28T18:45:52.101Z,18.00
2018-08-28T18:48:21.125Z,17.90
2018-08-28T18:50:50.138Z,17.80
2018-08-28T18:53:19.109Z,17.80
2018-08-28T18:55:47.982Z,17.80
2018-08-28T18:58:16.947Z,17.80
2018-08-28T19:00:45.900Z,17.70
2018-08-28T19:03:14.773Z,17.70
2018-08-28T19:05:43.713Z,17.60
2018-08-28T19:08:12.633Z,17.50
2018-08-28T19:10:41.638Z,17.50
2018-08-28T19:13:10.757Z,17.40
2018-08-28T19:15:39.679Z,17.30
2018-08-28T19:18:08.706Z,17.30
2018-08-28T19:20:37.946Z,17.30
2018-08-28T19:23:06.947Z,17.30
2018-08-28T19:25:36.010Z,17.30
2018-08-28T19:28:05.050Z,17.30
2018-08-28T19:30:34.024Z,17.20
2018-08-28T19:33:03.018Z,17.20
2018-08-28T19:35:32.236Z,17.20
2018-08-28T19:38:01.298Z,17.10
2018-08-28T19:40:30.340Z,17.10
2018-08-28T19:42:59.332Z,17.00
2018-08-28T19:45:28.253Z,16.90
2018-08-28T19:47:57.308Z,16.90
2018-08-28T19:50:26.371Z,16.90
2018-08-28T19:52:55.537Z,16.90
2018-08-28T19:55:24.577Z,16.80
2018-08-28T19:57:53.614Z,16.70
2018-08-28T20:00:22.654Z,16.60
2018-08-28T20:02:51.798Z,16.50
2018-08-28T20:05:20.840Z,16.40
2018-08-28T20:07:49.866Z,16.30
2018-08-28T20:10:18.833Z,16.20
2018-08-28T20:12:47.922Z,16.10
2018-08-28T20:15:17.199Z,16.10
2018-08-28T20:17:46.219Z,16.10
2018-08-28T20:20:15.234Z,16.00
2018-08-28T20:22:44.168Z,16.10
2018-08-28T20:25:13.127Z,16.00
2018-08-28T20:27:42.131Z,16.10
2018-08-28T20:30:11.298Z,16.00
2018-08-28T20:32:40.344Z,16.00
2018-08-28T20:35:09.344Z,15.90
2018-08-28T20:37:38.581Z,15.90
2018-08-28T20:40:07.626Z,15.90
2018-08-28T20:42:36.799Z,15.80
2018-08-28T20:45:05.885Z,15.80
2018-08-28T20:47:35.073Z,15.70
2018-08-28T20:50:03.985Z,15.70
2018-08-28T20:52:32.973Z,15.70
2018-08-28T20:55:01.995Z,15.70
2018-08-28T20:57:30.906Z,15.60
2018-08-28T21:00:00.197Z,15.50
2018-08-28T21:02:29.308Z,15.60
2018-08-28T21:04:58.458Z,15.50
2018-08-28T21:07:27.438Z,15.40
2018-08-28T21:09:56.481Z,15.40
2018-08-28T21:12:25.452Z,15.40
2018-08-28T21:14:54.503Z,15.40
2018-08-28T21:17:23.427Z,15.40
2018-08-28T21:19:52.441Z,15.30
2018-08-28T21:22:21.460Z,15.40
2018-08-28T21:24:50.463Z,15.30
2018-08-28T21:27:19.608Z,15.30
2018-08-28T21:29:48.892Z,15.20
2018-08-28T21:32:18.033Z,15.20
2018-08-28T21:34:47.160Z,15.10
2018-08-28T21:37:16.128Z,15.10
2018-08-28T21:39:45.198Z,15.10
2018-08-28T21:42:14.167Z,15.10
2018-08-28T21:44:42.972Z,15.10
2018-08-28T21:47:11.975Z,15.00
2018-08-28T21:49:40.950Z,15.00
2018-08-28T21:52:10.145Z,15.00
2018-08-28T21:54:39.122Z,15.00
2018-08-28T21:57:08.110Z,14.90
2018-08-28T21:59:37.109Z,14.90
2018-08-28T22:02:06.117Z,14.90
2018-08-28T22:04:35.134Z,14.80
2018-08-28T22:07:09.341Z,14.80
2018-08-28T22:09:38.421Z,14.80
2018-08-28T22:12:07.395Z,14.80
2018-08-28T22:14:36.378Z,14.90
2018-08-28T22:17:05.478Z,14.80
2018-08-28T22:19:34.476Z,14.80
2018-08-28T22:22:04.401Z,14.70
2018-08-28T22:24:33.298Z,14.70
2018-08-28T22:27:02.224Z,14.70
2018-08-28T22:29:31.233Z,14.70
2018-08-28T22:32:00.244Z,14.70
2018-08-28T22:34:29.261Z,14.60
2018-08-28T22:36:58.215Z,14.60
2018-08-28T22:39:27.171Z,14.60
2018-08-28T22:41:56.065Z,14.60
2018-08-28T22:44:25.077Z,14.60
2018-08-28T22:46:54.098Z,14.60
2018-08-28T22:49:23.021Z,14.60
2018-08-28T22:51:52.709Z,14.50
2018-08-28T22:54:21.664Z,14.50
2018-08-28T22:56:50.713Z,14.50
2018-08-28T22:59:19.725Z,14.40
2018-08-28T23:01:48.682Z,14.40
2018-08-28T23:04:17.641Z,14.50
2018-08-28T23:06:46.549Z,14.50
2018-08-28T23:09:15.569Z,14.50
2018-08-28T23:11:44.490Z,14.50
2018-08-28T23:14:13.463Z,14.40
2018-08-28T23:16:42.486Z,14.40
2018-08-28T23:19:11.511Z,14.40
2018-08-28T23:21:40.650Z,14.40
2018-08-28T23:24:09.655Z,14.40
2018-08-28T23:26:38.622Z,14.40
2018-08-28T23:29:07.639Z,14.40
2018-08-28T23:31:36.758Z,14.40
2018-08-28T23:34:05.785Z,14.30
2018-08-28T23:36:34.814Z,14.30
2018-08-28T23:39:03.995Z,14.20
2018-08-28T23:41:33.069Z,14.20
2018-08-28T23:44:02.139Z,14.20
2018-08-28T23:46:31.212Z,14.20
2018-08-28T23:49:00.265Z,14.20
2018-08-28T23:51:29.283Z,14.20
2018-08-28T23:53:58.577Z,14.20
2018-08-28T23:56:27.658Z,14.10
2018-08-28T23:58:56.758Z,14.10
